sensor_id;sensor_type;location;lat;lon;timestamp;temperature;humidity
13488;DHT22;6816;48.506;9.050;2023-04-24T00:02:20;12.90;99.70
13488;DHT22;6816;48.506;9.050;2023-04-24T00:05:21;13.00;99.80
13488;DHT22;6816;48.506;9.050;2023-04-24T00:08:22;12.90;99.90
13488;DHT22;6816;48.506;9.050;2023-04-24T00:11:24;13.00;99.90
13488;DHT22;6816;48.506;9.050;2023-04-24T00:14:25;13.00;99.90
13488;DHT22;6816;48.506;9.050;2023-04-24T00:17:25;13.00;99.90
13488;DHT22;6816;48.506;9.050;2023-04-24T00:20:26;13.10;99.90
13488;DHT22;6816;48.506;9.050;2023-04-24T00:23:28;13.00;99.90
13488;DHT22;6816;48.506;9.050;2023-04-24T00:26:29;13.10;99.90
13488;DHT22;6816;48.506;9.050;2023-04-24T00:29:29;13.10;99.60
13488;DHT22;6816;48.506;9.050;2023-04-24T00:32:30;13.10;99.90
13488;DHT22;6816;48.506;9.050;2023-04-24T00:35:31;13.10;99.90
13488;DHT22;6816;48.506;9.050;2023-04-24T00:38:31;13.10;99.90
13488;DHT22;6816;48.506;9.050;2023-04-24T00:41:32;13.10;99.90
13488;DHT22;6816;48.506;9.050;2023-04-24T00:44:33;13.20;99.90
13488;DHT22;6816;48.506;9.050;2023-04-24T00:47:35;13.20;99.90
13488;DHT22;6816;48.506;9.050;2023-04-24T00:50:36;13.20;99.90
13488;DHT22;6816;48.506;9.050;2023-04-24T00:53:37;13.20;99.90
13488;DHT22;6816;48.506;9.050;2023-04-24T00:56:37;13.20;99.90
13488;DHT22;6816;48.506;9.050;2023-04-24T00:59:38;13.20;99.90
13488;DHT22;6816;48.506;9.050;2023-04-24T01:02:41;13.20;99.90
13488;DHT22;6816;48.506;9.050;2023-04-24T01:05:45;13.20;99.90
13488;DHT22;6816;48.506;9.050;2023-04-24T01:08:47;13.30;99.90
13488;DHT22;6816;48.506;9.050;2023-04-24T01:11:48;13.30;99.90
13488;DHT22;6816;48.506;9.050;2023-04-24T01:14:49;13.30;99.90
13488;DHT22;6816;48.506;9.050;2023-04-24T01:17:49;13.30;99.90
13488;DHT22;6816;48.506;9.050;2023-04-24T01:20:53;13.20;99.90
13488;DHT22;6816;48.506;9.050;2023-04-24T01:23:54;13.20;99.90
13488;DHT22;6816;48.506;9.050;2023-04-24T01:26:56;13.10;99.90
13488;DHT22;6816;48.506;9.050;2023-04-24T01:29:57;13.10;99.90
13488;DHT22;6816;48.506;9.050;2023-04-24T01:32:58;13.10;99.90
13488;DHT22;6816;48.506;9.050;2023-04-24T01:35:59;13.00;99.90
13488;DHT22;6816;48.506;9.050;2023-04-24T01:39:00;12.90;99.90
13488;DHT22;6816;48.506;9.050;2023-04-24T01:42:01;13.00;99.90
13488;DHT22;6816;48.506;9.050;2023-04-24T01:45:03;13.00;99.90
13488;DHT22;6816;48.506;9.050;2023-04-24T01:48:05;12.80;99.90
13488;DHT22;6816;48.506;9.050;2023-04-24T01:51:06;12.80;99.90
13488;DHT22;6816;48.506;9.050;2023-04-24T01:54:06;12.80;99.90
13488;DHT22;6816;48.506;9.050;2023-04-24T01:57:07;12.70;99.90
13488;DHT22;6816;48.506;9.050;2023-04-24T02:00:09;12.70;99.90
13488;DHT22;6816;48.506;9.050;2023-04-24T02:03:11;12.70;99.90
13488;DHT22;6816;48.506;9.050;2023-04-24T02:06:12;12.70;99.90
13488;DHT22;6816;48.506;9.050;2023-04-24T02:09:13;12.50;99.90
13488;DHT22;6816;48.506;9.050;2023-04-24T02:12:14;12.60;99.90
13488;DHT22;6816;48.506;9.050;2023-04-24T02:15:15;12.80;99.90
13488;DHT22;6816;48.506;9.050;2023-04-24T02:18:16;12.70;99.90
13488;DHT22;6816;48.506;9.050;2023-04-24T02:21:17;12.60;99.90
13488;DHT22;6816;48.506;9.050;2023-04-24T02:24:17;12.60;99.90
13488;DHT22;6816;48.506;9.050;2023-04-24T02:27:18;12.50;99.90
13488;DHT22;6816;48.506;9.050;2023-04-24T02:30:19;12.60;99.90
13488;DHT22;6816;48.506;9.050;2023-04-24T02:33:20;12.50;99.90
13488;DHT22;6816;48.506;9.050;2023-04-24T02:36:20;12.50;99.90
13488;DHT22;6816;48.506;9.050;2023-04-24T02:39:21;12.50;99.90
13488;DHT22;6816;48.506;9.050;2023-04-24T02:42:22;12.50;99.90
13488;DHT22;6816;48.506;9.050;2023-04-24T02:45:22;12.50;99.90
13488;DHT22;6816;48.506;9.050;2023-04-24T02:48:23;12.50;99.90
13488;DHT22;6816;48.506;9.050;2023-04-24T02:51:24;12.40;99.90
13488;DHT22;6816;48.506;9.050;2023-04-24T02:54:25;12.50;99.90
13488;DHT22;6816;48.506;9.050;2023-04-24T02:57:26;12.50;99.90
13488;DHT22;6816;48.506;9.050;2023-04-24T03:00:26;12.50;99.90
13488;DHT22;6816;48.506;9.050;2023-04-24T03:03:27;12.50;99.90
13488;DHT22;6816;48.506;9.050;2023-04-24T03:06:27;12.50;99.90
13488;DHT22;6816;48.506;9.050;2023-04-24T03:09:28;12.50;99.90
13488;DHT22;6816;48.506;9.050;2023-04-24T03:12:29;12.50;99.90
13488;DHT22;6816;48.506;9.050;2023-04-24T03:15:29;12.50;99.90
13488;DHT22;6816;48.506;9.050;2023-04-24T03:18:30;12.50;99.90
13488;DHT22;6816;48.506;9.050;2023-04-24T03:21:31;12.50;99.90
13488;DHT22;6816;48.506;9.050;2023-04-24T03:24:31;12.50;99.90
13488;DHT22;6816;48.506;9.050;2023-04-24T03:27:32;12.60;99.90
13488;DHT22;6816;48.506;9.050;2023-04-24T03:30:33;12.50;99.90
13488;DHT22;6816;48.506;9.050;2023-04-24T03:33:33;12.50;99.90
13488;DHT22;6816;48.506;9.050;2023-04-24T03:36:34;12.50;99.90
13488;DHT22;6816;48.506;9.050;2023-04-24T03:39:35;12.50;99.90
13488;DHT22;6816;48.506;9.050;2023-04-24T03:42:35;12.40;99.90
13488;DHT22;6816;48.506;9.050;2023-04-24T03:45:36;12.40;99.90
13488;DHT22;6816;48.506;9.050;2023-04-24T03:48:36;12.40;99.90
13488;DHT22;6816;48.506;9.050;2023-04-24T03:51:37;12.40;99.90
13488;DHT22;6816;48.506;9.050;2023-04-24T03:54:38;12.30;99.90
13488;DHT22;6816;48.506;9.050;2023-04-24T03:57:40;12.30;99.90
13488;DHT22;6816;48.506;9.050;2023-04-24T04:00:40;12.20;99.90
13488;DHT22;6816;48.506;9.050;2023-04-24T04:03:41;12.40;99.90
13488;DHT22;6816;48.506;9.050;2023-04-24T04:06:42;12.10;99.90
13488;DHT22;6816;48.506;9.050;2023-04-24T04:09:44;12.10;99.90
13488;DHT22;6816;48.506;9.050;2023-04-24T04:12:44;12.00;99.90
13488;DHT22;6816;48.506;9.050;2023-04-24T04:15:45;12.00;99.90
13488;DHT22;6816;48.506;9.050;2023-04-24T04:18:46;11.90;99.90
13488;DHT22;6816;48.506;9.050;2023-04-24T04:21:46;12.00;99.90
13488;DHT22;6816;48.506;9.050;2023-04-24T04:24:52;11.90;99.90
13488;DHT22;6816;48.506;9.050;2023-04-24T04:27:53;11.90;99.90
13488;DHT22;6816;48.506;9.050;2023-04-24T04:30:54;11.90;99.90
13488;DHT22;6816;48.506;9.050;2023-04-24T04:33:55;11.90;99.90
13488;DHT22;6816;48.506;9.050;2023-04-24T04:36:56;11.90;99.90
13488;DHT22;6816;48.506;9.050;2023-04-24T04:39:57;11.90;99.90
13488;DHT22;6816;48.506;9.050;2023-04-24T04:42:58;11.90;99.90
13488;DHT22;6816;48.506;9.050;2023-04-24T04:45:59;11.90;99.90
13488;DHT22;6816;48.506;9.050;2023-04-24T04:49:01;12.00;99.90
13488;DHT22;6816;48.506;9.050;2023-04-24T04:52:02;11.90;99.90
13488;DHT22;6816;48.506;9.050;2023-04-24T04:55:03;11.90;99.90
13488;DHT22;6816;48.506;9.050;2023-04-24T04:58:04;11.90;99.90
13488;DHT22;6816;48.506;9.050;2023-04-24T05:01:04;11.90;99.90
13488;DHT22;6816;48.506;9.050;2023-04-24T05:04:05;12.00;99.90
13488;DHT22;6816;48.506;9.050;2023-04-24T05:07:06;12.00;99.90
13488;DHT22;6816;48.506;9.050;2023-04-24T05:10:07;12.00;99.90
13488;DHT22;6816;48.506;9.050;2023-04-24T05:13:08;12.00;99.90
13488;DHT22;6816;48.506;9.050;2023-04-24T05:16:08;12.00;99.90
13488;DHT22;6816;48.506;9.050;2023-04-24T05:19:09;11.90;99.90
13488;DHT22;6816;48.506;9.050;2023-04-24T05:22:11;11.90;99.90
13488;DHT22;6816;48.506;9.050;2023-04-24T05:25:11;11.80;99.90
13488;DHT22;6816;48.506;9.050;2023-04-24T05:28:12;11.80;99.90
13488;DHT22;6816;48.506;9.050;2023-04-24T05:31:13;11.80;99.90
13488;DHT22;6816;48.506;9.050;2023-04-24T05:34:14;11.70;99.90
13488;DHT22;6816;48.506;9.050;2023-04-24T05:37:16;11.70;99.90
13488;DHT22;6816;48.506;9.050;2023-04-24T05:40:17;11.70;99.90
13488;DHT22;6816;48.506;9.050;2023-04-24T05:43:17;11.60;99.90
13488;DHT22;6816;48.506;9.050;2023-04-24T05:46:18;11.70;99.90
13488;DHT22;6816;48.506;9.050;2023-04-24T05:49:18;11.60;99.90
13488;DHT22;6816;48.506;9.050;2023-04-24T05:52:19;11.70;99.90
13488;DHT22;6816;48.506;9.050;2023-04-24T05:55:20;11.70;99.90
13488;DHT22;6816;48.506;9.050;2023-04-24T05:58:20;11.70;99.90
13488;DHT22;6816;48.506;9.050;2023-04-24T06:01:21;11.70;99.90
13488;DHT22;6816;48.506;9.050;2023-04-24T06:04:21;11.90;99.90
13488;DHT22;6816;48.506;9.050;2023-04-24T06:07:22;11.90;99.90
13488;DHT22;6816;48.506;9.050;2023-04-24T06:10:23;12.00;99.90
13488;DHT22;6816;48.506;9.050;2023-04-24T06:13:23;12.00;99.90
13488;DHT22;6816;48.506;9.050;2023-04-24T06:16:24;12.00;99.90
13488;DHT22;6816;48.506;9.050;2023-04-24T06:19:25;12.10;99.90
13488;DHT22;6816;48.506;9.050;2023-04-24T06:22:25;12.20;99.90
13488;DHT22;6816;48.506;9.050;2023-04-24T06:25:26;12.20;99.90
13488;DHT22;6816;48.506;9.050;2023-04-24T06:28:27;12.30;99.90
13488;DHT22;6816;48.506;9.050;2023-04-24T06:31:27;12.30;99.90
13488;DHT22;6816;48.506;9.050;2023-04-24T06:34:28;12.40;99.90
13488;DHT22;6816;48.506;9.050;2023-04-24T06:37:31;12.50;99.90
13488;DHT22;6816;48.506;9.050;2023-04-24T06:40:32;12.70;99.90
13488;DHT22;6816;48.506;9.050;2023-04-24T06:43:33;13.00;99.90
13488;DHT22;6816;48.506;9.050;2023-04-24T06:46:34;13.20;99.90
13488;DHT22;6816;48.506;9.050;2023-04-24T06:49:38;13.50;99.90
13488;DHT22;6816;48.506;9.050;2023-04-24T06:52:39;13.70;99.90
13488;DHT22;6816;48.506;9.050;2023-04-24T06:55:40;14.00;99.90
13488;DHT22;6816;48.506;9.050;2023-04-24T06:58:40;14.30;99.90
13488;DHT22;6816;48.506;9.050;2023-04-24T07:01:42;14.40;99.90
13488;DHT22;6816;48.506;9.050;2023-04-24T07:04:42;14.70;99.90
13488;DHT22;6816;48.506;9.050;2023-04-24T07:07:47;14.80;99.90
13488;DHT22;6816;48.506;9.050;2023-04-24T07:10:49;15.00;99.90
13488;DHT22;6816;48.506;9.050;2023-04-24T07:13:50;15.20;99.90
13488;DHT22;6816;48.506;9.050;2023-04-24T07:16:50;15.10;99.90
13488;DHT22;6816;48.506;9.050;2023-04-24T07:19:51;15.10;99.90
13488;DHT22;6816;48.506;9.050;2023-04-24T07:22:52;15.10;99.90
13488;DHT22;6816;48.506;9.050;2023-04-24T07:25:54;15.00;99.90
13488;DHT22;6816;48.506;9.050;2023-04-24T07:28:54;15.00;99.90
13488;DHT22;6816;48.506;9.050;2023-04-24T07:31:55;14.90;99.90
13488;DHT22;6816;48.506;9.050;2023-04-24T07:34:56;14.80;99.90
13488;DHT22;6816;48.506;9.050;2023-04-24T07:37:57;14.70;99.90
13488;DHT22;6816;48.506;9.050;2023-04-24T07:40:58;14.50;99.90
13488;DHT22;6816;48.506;9.050;2023-04-24T07:43:58;14.50;99.90
13488;DHT22;6816;48.506;9.050;2023-04-24T07:46:59;14.50;99.90
13488;DHT22;6816;48.506;9.050;2023-04-24T07:50:00;14.50;99.90
13488;DHT22;6816;48.506;9.050;2023-04-24T07:53:00;14.50;99.90
13488;DHT22;6816;48.506;9.050;2023-04-24T07:56:01;14.50;99.90
13488;DHT22;6816;48.506;9.050;2023-04-24T07:59:02;14.50;99.90
13488;DHT22;6816;48.506;9.050;2023-04-24T08:02:02;14.60;99.90
13488;DHT22;6816;48.506;9.050;2023-04-24T08:05:03;14.60;99.90
13488;DHT22;6816;48.506;9.050;2023-04-24T08:08:04;14.70;99.90
13488;DHT22;6816;48.506;9.050;2023-04-24T08:11:05;14.80;99.90
13488;DHT22;6816;48.506;9.050;2023-04-24T08:14:05;14.70;99.90
13488;DHT22;6816;48.506;9.050;2023-04-24T08:17:06;14.70;99.90
13488;DHT22;6816;48.506;9.050;2023-04-24T08:20:07;14.70;99.90
13488;DHT22;6816;48.506;9.050;2023-04-24T08:23:13;14.60;99.90
13488;DHT22;6816;48.506;9.050;2023-04-24T08:26:14;14.60;99.90
13488;DHT22;6816;48.506;9.050;2023-04-24T08:29:15;14.50;99.90
13488;DHT22;6816;48.506;9.050;2023-04-24T08:32:16;14.40;99.90
13488;DHT22;6816;48.506;9.050;2023-04-24T08:35:17;14.40;99.90
13488;DHT22;6816;48.506;9.050;2023-04-24T08:38:18;14.30;99.90
13488;DHT22;6816;48.506;9.050;2023-04-24T08:41:19;14.30;99.90
13488;DHT22;6816;48.506;9.050;2023-04-24T08:44:20;14.30;99.90
13488;DHT22;6816;48.506;9.050;2023-04-24T08:47:22;14.30;99.90
13488;DHT22;6816;48.506;9.050;2023-04-24T08:50:24;14.30;99.90
13488;DHT22;6816;48.506;9.050;2023-04-24T08:53:25;14.30;99.90
13488;DHT22;6816;48.506;9.050;2023-04-24T08:56:28;14.40;99.90
13488;DHT22;6816;48.506;9.050;2023-04-24T08:59:30;14.50;99.90
13488;DHT22;6816;48.506;9.050;2023-04-24T09:02:31;14.90;99.90
13488;DHT22;6816;48.506;9.050;2023-04-24T09:05:32;15.10;99.90
13488;DHT22;6816;48.506;9.050;2023-04-24T09:08:34;15.40;99.90
13488;DHT22;6816;48.506;9.050;2023-04-24T09:11:36;15.70;99.90
13488;DHT22;6816;48.506;9.050;2023-04-24T09:14:37;16.00;99.90
13488;DHT22;6816;48.506;9.050;2023-04-24T09:17:43;16.40;99.90
13488;DHT22;6816;48.506;9.050;2023-04-24T09:21:03;16.70;99.90
13488;DHT22;6816;48.506;9.050;2023-04-24T09:24:07;17.10;99.90
13488;DHT22;6816;48.506;9.050;2023-04-24T09:27:08;17.60;99.90
13488;DHT22;6816;48.506;9.050;2023-04-24T09:30:11;17.80;99.90
13488;DHT22;6816;48.506;9.050;2023-04-24T09:33:12;18.00;99.90
13488;DHT22;6816;48.506;9.050;2023-04-24T09:36:17;18.10;99.90
13488;DHT22;6816;48.506;9.050;2023-04-24T09:39:18;18.10;99.40
13488;DHT22;6816;48.506;9.050;2023-04-24T09:42:21;18.10;99.90
13488;DHT22;6816;48.506;9.050;2023-04-24T09:45:35;18.00;98.60
13488;DHT22;6816;48.506;9.050;2023-04-24T09:48:37;17.90;95.70
13488;DHT22;6816;48.506;9.050;2023-04-24T09:51:38;17.80;98.60
13488;DHT22;6816;48.506;9.050;2023-04-24T09:54:39;17.80;98.90
13488;DHT22;6816;48.506;9.050;2023-04-24T09:57:51;17.70;98.40
13488;DHT22;6816;48.506;9.050;2023-04-24T10:00:56;17.50;95.20
13488;DHT22;6816;48.506;9.050;2023-04-24T10:03:57;17.40;95.00
13488;DHT22;6816;48.506;9.050;2023-04-24T10:06:57;17.30;96.40
13488;DHT22;6816;48.506;9.050;2023-04-24T10:09:58;17.10;96.90
13488;DHT22;6816;48.506;9.050;2023-04-24T10:13:00;16.90;96.80
13488;DHT22;6816;48.506;9.050;2023-04-24T10:16:03;16.90;97.60
13488;DHT22;6816;48.506;9.050;2023-04-24T10:19:04;16.90;98.40
13488;DHT22;6816;48.506;9.050;2023-04-24T10:22:05;17.00;99.90
13488;DHT22;6816;48.506;9.050;2023-04-24T10:25:07;17.20;99.90
13488;DHT22;6816;48.506;9.050;2023-04-24T10:28:09;17.30;99.90
13488;DHT22;6816;48.506;9.050;2023-04-24T10:31:11;17.50;99.90
13488;DHT22;6816;48.506;9.050;2023-04-24T10:34:15;17.70;99.90
13488;DHT22;6816;48.506;9.050;2023-04-24T10:37:16;17.70;97.90
13488;DHT22;6816;48.506;9.050;2023-04-24T10:40:18;17.70;97.60
13488;DHT22;6816;48.506;9.050;2023-04-24T10:43:19;17.60;96.00
13488;DHT22;6816;48.506;9.050;2023-04-24T10:46:20;17.40;95.70
13488;DHT22;6816;48.506;9.050;2023-04-24T10:49:31;17.30;95.90
13488;DHT22;6816;48.506;9.050;2023-04-24T10:52:48;17.20;94.20
13488;DHT22;6816;48.506;9.050;2023-04-24T10:55:57;16.90;92.90
13488;DHT22;6816;48.506;9.050;2023-04-24T10:58:57;16.80;95.80
13488;DHT22;6816;48.506;9.050;2023-04-24T11:01:58;16.60;96.20
13488;DHT22;6816;48.506;9.050;2023-04-24T11:05:03;16.50;96.40
13488;DHT22;6816;48.506;9.050;2023-04-24T11:08:15;16.50;94.40
13488;DHT22;6816;48.506;9.050;2023-04-24T11:11:17;16.40;94.00
13488;DHT22;6816;48.506;9.050;2023-04-24T11:14:18;16.40;97.10
13488;DHT22;6816;48.506;9.050;2023-04-24T11:20:33;16.50;95.10
13488;DHT22;6816;48.506;9.050;2023-04-24T11:23:36;16.60;99.30
13488;DHT22;6816;48.506;9.050;2023-04-24T11:26:38;16.70;99.20
13488;DHT22;6816;48.506;9.050;2023-04-24T11:29:59;16.90;99.50
13488;DHT22;6816;48.506;9.050;2023-04-24T11:33:04;17.00;98.60
13488;DHT22;6816;48.506;9.050;2023-04-24T11:36:05;17.00;97.80
13488;DHT22;6816;48.506;9.050;2023-04-24T11:39:06;17.00;97.20
13488;DHT22;6816;48.506;9.050;2023-04-24T11:42:08;17.10;96.70
13488;DHT22;6816;48.506;9.050;2023-04-24T11:45:10;17.00;96.40
13488;DHT22;6816;48.506;9.050;2023-04-24T11:48:11;16.90;96.60
13488;DHT22;6816;48.506;9.050;2023-04-24T11:51:13;16.90;96.90
13488;DHT22;6816;48.506;9.050;2023-04-24T11:54:14;16.80;96.60
13488;DHT22;6816;48.506;9.050;2023-04-24T11:57:15;16.80;96.20
13488;DHT22;6816;48.506;9.050;2023-04-24T12:00:18;16.70;95.90
13488;DHT22;6816;48.506;9.050;2023-04-24T12:03:19;16.60;95.40
13488;DHT22;6816;48.506;9.050;2023-04-24T12:06:19;16.50;95.70
13488;DHT22;6816;48.506;9.050;2023-04-24T12:09:20;16.50;95.70
13488;DHT22;6816;48.506;9.050;2023-04-24T12:12:24;16.40;95.40
13488;DHT22;6816;48.506;9.050;2023-04-24T12:15:27;16.30;94.00
13488;DHT22;6816;48.506;9.050;2023-04-24T12:18:27;16.10;95.20
13488;DHT22;6816;48.506;9.050;2023-04-24T12:21:28;16.00;95.50
13488;DHT22;6816;48.506;9.050;2023-04-24T12:24:31;16.00;95.50
13488;DHT22;6816;48.506;9.050;2023-04-24T12:27:32;15.90;95.30
13488;DHT22;6816;48.506;9.050;2023-04-24T12:30:43;15.90;95.20
13488;DHT22;6816;48.506;9.050;2023-04-24T12:33:48;15.90;94.20
13488;DHT22;6816;48.506;9.050;2023-04-24T12:36:49;15.80;95.40
13488;DHT22;6816;48.506;9.050;2023-04-24T12:40:09;15.70;95.30
13488;DHT22;6816;48.506;9.050;2023-04-24T12:43:18;15.60;92.60
13488;DHT22;6816;48.506;9.050;2023-04-24T12:46:18;15.60;93.20
13488;DHT22;6816;48.506;9.050;2023-04-24T12:49:19;15.50;95.50
13488;DHT22;6816;48.506;9.050;2023-04-24T12:52:20;15.40;95.80
13488;DHT22;6816;48.506;9.050;2023-04-24T12:55:22;15.40;95.80
13488;DHT22;6816;48.506;9.050;2023-04-24T12:58:22;15.40;96.40
13488;DHT22;6816;48.506;9.050;2023-04-24T13:01:23;15.50;97.00
13488;DHT22;6816;48.506;9.050;2023-04-24T13:04:23;15.60;97.60
13488;DHT22;6816;48.506;9.050;2023-04-24T13:07:25;15.80;97.70
13488;DHT22;6816;48.506;9.050;2023-04-24T13:10:25;15.90;98.00
13488;DHT22;6816;48.506;9.050;2023-04-24T13:13:26;16.00;98.60
13488;DHT22;6816;48.506;9.050;2023-04-24T13:16:27;16.30;99.90
13488;DHT22;6816;48.506;9.050;2023-04-24T13:19:27;16.40;99.60
13488;DHT22;6816;48.506;9.050;2023-04-24T13:22:28;16.50;98.20
13488;DHT22;6816;48.506;9.050;2023-04-24T13:25:35;16.60;97.60
13488;DHT22;6816;48.506;9.050;2023-04-24T13:28:35;16.60;96.30
13488;DHT22;6816;48.506;9.050;2023-04-24T13:31:36;16.60;96.80
13488;DHT22;6816;48.506;9.050;2023-04-24T13:34:38;16.60;96.40
13488;DHT22;6816;48.506;9.050;2023-04-24T13:37:39;16.60;96.10
13488;DHT22;6816;48.506;9.050;2023-04-24T13:40:39;16.50;96.00
13488;DHT22;6816;48.506;9.050;2023-04-24T13:43:40;16.50;95.70
13488;DHT22;6816;48.506;9.050;2023-04-24T13:46:44;16.40;95.50
13488;DHT22;6816;48.506;9.050;2023-04-24T13:49:45;16.40;95.90
13488;DHT22;6816;48.506;9.050;2023-04-24T13:52:46;16.40;96.40
13488;DHT22;6816;48.506;9.050;2023-04-24T13:55:46;16.40;96.60
13488;DHT22;6816;48.506;9.050;2023-04-24T13:58:48;16.50;96.80
13488;DHT22;6816;48.506;9.050;2023-04-24T14:01:48;16.50;96.30
13488;DHT22;6816;48.506;9.050;2023-04-24T14:04:49;16.50;96.00
13488;DHT22;6816;48.506;9.050;2023-04-24T14:07:50;16.50;95.50
13488;DHT22;6816;48.506;9.050;2023-04-24T14:10:51;16.50;95.10
13488;DHT22;6816;48.506;9.050;2023-04-24T14:13:51;16.40;95.00
13488;DHT22;6816;48.506;9.050;2023-04-24T14:16:52;16.40;94.90
13488;DHT22;6816;48.506;9.050;2023-04-24T14:19:53;16.30;94.50
13488;DHT22;6816;48.506;9.050;2023-04-24T14:22:56;16.20;94.40
13488;DHT22;6816;48.506;9.050;2023-04-24T14:25:59;16.10;94.70
13488;DHT22;6816;48.506;9.050;2023-04-24T14:29:00;16.00;94.10
13488;DHT22;6816;48.506;9.050;2023-04-24T14:32:00;15.90;94.20
13488;DHT22;6816;48.506;9.050;2023-04-24T14:35:01;15.90;94.70
13488;DHT22;6816;48.506;9.050;2023-04-24T14:38:01;15.80;94.50
13488;DHT22;6816;48.506;9.050;2023-04-24T14:41:02;15.70;94.50
13488;DHT22;6816;48.506;9.050;2023-04-24T14:44:09;15.70;94.60
13488;DHT22;6816;48.506;9.050;2023-04-24T14:47:09;15.60;94.70
13488;DHT22;6816;48.506;9.050;2023-04-24T14:50:10;15.60;94.80
13488;DHT22;6816;48.506;9.050;2023-04-24T14:53:12;15.60;94.90
13488;DHT22;6816;48.506;9.050;2023-04-24T14:56:13;15.50;94.80
13488;DHT22;6816;48.506;9.050;2023-04-24T14:59:14;15.50;94.80
13488;DHT22;6816;48.506;9.050;2023-04-24T15:02:15;15.50;94.80
13488;DHT22;6816;48.506;9.050;2023-04-24T15:05:16;15.50;94.90
13488;DHT22;6816;48.506;9.050;2023-04-24T15:08:16;15.50;95.20
13488;DHT22;6816;48.506;9.050;2023-04-24T15:11:17;15.50;95.10
13488;DHT22;6816;48.506;9.050;2023-04-24T15:14:18;15.50;95.50
13488;DHT22;6816;48.506;9.050;2023-04-24T15:17:19;15.50;95.50
13488;DHT22;6816;48.506;9.050;2023-04-24T15:20:19;15.60;95.50
13488;DHT22;6816;48.506;9.050;2023-04-24T15:23:20;15.60;95.60
13488;DHT22;6816;48.506;9.050;2023-04-24T15:26:23;15.60;95.80
13488;DHT22;6816;48.506;9.050;2023-04-24T15:29:24;15.60;95.70
13488;DHT22;6816;48.506;9.050;2023-04-24T15:32:25;15.60;95.80
13488;DHT22;6816;48.506;9.050;2023-04-24T15:35:26;15.60;95.60
13488;DHT22;6816;48.506;9.050;2023-04-24T15:38:26;15.60;95.60
13488;DHT22;6816;48.506;9.050;2023-04-24T15:41:27;15.60;95.70
13488;DHT22;6816;48.506;9.050;2023-04-24T15:44:28;15.60;95.50
13488;DHT22;6816;48.506;9.050;2023-04-24T15:47:29;15.60;95.30
13488;DHT22;6816;48.506;9.050;2023-04-24T15:50:29;15.60;95.10
13488;DHT22;6816;48.506;9.050;2023-04-24T15:53:30;15.60;95.30
13488;DHT22;6816;48.506;9.050;2023-04-24T15:56:31;15.60;95.20
13488;DHT22;6816;48.506;9.050;2023-04-24T15:59:32;15.60;95.30
13488;DHT22;6816;48.506;9.050;2023-04-24T16:02:33;15.50;95.40
13488;DHT22;6816;48.506;9.050;2023-04-24T16:05:34;15.60;95.70
13488;DHT22;6816;48.506;9.050;2023-04-24T16:08:34;15.60;96.00
13488;DHT22;6816;48.506;9.050;2023-04-24T16:11:35;15.60;95.70
13488;DHT22;6816;48.506;9.050;2023-04-24T16:14:37;15.70;96.10
13488;DHT22;6816;48.506;9.050;2023-04-24T16:17:38;15.70;96.00
13488;DHT22;6816;48.506;9.050;2023-04-24T16:20:38;15.80;96.10
13488;DHT22;6816;48.506;9.050;2023-04-24T16:23:39;15.80;95.70
13488;DHT22;6816;48.506;9.050;2023-04-24T16:26:40;15.80;95.50
13488;DHT22;6816;48.506;9.050;2023-04-24T16:29:41;15.80;95.30
13488;DHT22;6816;48.506;9.050;2023-04-24T16:32:41;15.80;95.50
13488;DHT22;6816;48.506;9.050;2023-04-24T16:35:42;15.80;95.30
13488;DHT22;6816;48.506;9.050;2023-04-24T16:38:43;15.80;95.20
13488;DHT22;6816;48.506;9.050;2023-04-24T16:41:44;15.80;94.90
13488;DHT22;6816;48.506;9.050;2023-04-24T16:44:45;15.70;94.70
13488;DHT22;6816;48.506;9.050;2023-04-24T16:47:46;15.70;94.60
13488;DHT22;6816;48.506;9.050;2023-04-24T16:50:47;15.60;94.40
13488;DHT22;6816;48.506;9.050;2023-04-24T16:53:47;15.60;94.60
13488;DHT22;6816;48.506;9.050;2023-04-24T16:56:48;15.50;94.50
13488;DHT22;6816;48.506;9.050;2023-04-24T16:59:48;15.50;94.60
13488;DHT22;6816;48.506;9.050;2023-04-24T17:02:49;15.50;94.60
13488;DHT22;6816;48.506;9.050;2023-04-24T17:05:50;15.40;94.70
13488;DHT22;6816;48.506;9.050;2023-04-24T17:08:50;15.40;94.90
13488;DHT22;6816;48.506;9.050;2023-04-24T17:11:51;15.40;95.10
13488;DHT22;6816;48.506;9.050;2023-04-24T17:14:51;15.40;95.00
13488;DHT22;6816;48.506;9.050;2023-04-24T17:17:52;15.50;94.70
13488;DHT22;6816;48.506;9.050;2023-04-24T17:20:53;15.40;94.60
13488;DHT22;6816;48.506;9.050;2023-04-24T17:23:53;15.40;94.50
13488;DHT22;6816;48.506;9.050;2023-04-24T17:26:54;15.40;94.60
13488;DHT22;6816;48.506;9.050;2023-04-24T17:29:57;15.40;94.40
13488;DHT22;6816;48.506;9.050;2023-04-24T17:32:58;15.30;93.80
13488;DHT22;6816;48.506;9.050;2023-04-24T17:35:59;15.20;94.10
13488;DHT22;6816;48.506;9.050;2023-04-24T17:39:01;15.10;94.30
13488;DHT22;6816;48.506;9.050;2023-04-24T17:42:03;15.00;94.10
13488;DHT22;6816;48.506;9.050;2023-04-24T17:45:04;14.90;93.90
13488;DHT22;6816;48.506;9.050;2023-04-24T17:48:04;14.80;93.80
13488;DHT22;6816;48.506;9.050;2023-04-24T17:51:05;14.60;93.70
13488;DHT22;6816;48.506;9.050;2023-04-24T17:54:06;14.50;93.80
13488;DHT22;6816;48.506;9.050;2023-04-24T17:57:06;14.40;93.90
13488;DHT22;6816;48.506;9.050;2023-04-24T18:00:07;14.30;94.00
13488;DHT22;6816;48.506;9.050;2023-04-24T18:03:08;14.20;94.20
13488;DHT22;6816;48.506;9.050;2023-04-24T18:06:09;14.10;94.30
13488;DHT22;6816;48.506;9.050;2023-04-24T18:09:10;14.10;94.30
13488;DHT22;6816;48.506;9.050;2023-04-24T18:12:11;14.00;94.40
13488;DHT22;6816;48.506;9.050;2023-04-24T18:15:12;13.90;94.50
13488;DHT22;6816;48.506;9.050;2023-04-24T18:18:13;13.80;94.60
13488;DHT22;6816;48.506;9.050;2023-04-24T18:21:14;13.90;94.70
13488;DHT22;6816;48.506;9.050;2023-04-24T18:24:15;13.70;94.90
13488;DHT22;6816;48.506;9.050;2023-04-24T18:27:15;13.60;94.90
13488;DHT22;6816;48.506;9.050;2023-04-24T18:30:16;13.60;94.90
13488;DHT22;6816;48.506;9.050;2023-04-24T18:33:17;13.50;94.70
13488;DHT22;6816;48.506;9.050;2023-04-24T18:36:18;13.50;94.90
13488;DHT22;6816;48.506;9.050;2023-04-24T18:39:19;13.50;95.00
13488;DHT22;6816;48.506;9.050;2023-04-24T18:42:19;13.40;95.60
13488;DHT22;6816;48.506;9.050;2023-04-24T18:45:24;13.30;95.30
13488;DHT22;6816;48.506;9.050;2023-04-24T18:48:25;13.30;94.80
13488;DHT22;6816;48.506;9.050;2023-04-24T18:51:28;13.20;95.40
13488;DHT22;6816;48.506;9.050;2023-04-24T18:54:28;13.10;95.50
13488;DHT22;6816;48.506;9.050;2023-04-24T18:57:30;12.90;95.50
13488;DHT22;6816;48.506;9.050;2023-04-24T19:00:31;12.80;95.60
13488;DHT22;6816;48.506;9.050;2023-04-24T19:03:31;12.60;95.80
13488;DHT22;6816;48.506;9.050;2023-04-24T19:06:32;12.50;96.00
13488;DHT22;6816;48.506;9.050;2023-04-24T19:09:33;12.50;96.30
13488;DHT22;6816;48.506;9.050;2023-04-24T19:12:33;12.20;96.60
13488;DHT22;6816;48.506;9.050;2023-04-24T19:15:34;12.10;96.90
13488;DHT22;6816;48.506;9.050;2023-04-24T19:18:34;12.10;97.30
13488;DHT22;6816;48.506;9.050;2023-04-24T19:21:35;12.00;97.70
13488;DHT22;6816;48.506;9.050;2023-04-24T19:24:36;11.90;98.00
13488;DHT22;6816;48.506;9.050;2023-04-24T19:27:37;11.90;98.30